Mezhdurechenskiy, Russia
Current Conditions -  °F | °C
As of 12:00 AM on Saturday 22 Nov 2014 (Local Time) from USHH Reporting Station
Scattered Clouds Scattered Clouds  
Wind Chill: -9°   Ceiling: Unl
Heat Index:   Visibility: 6mi
Dew Point: -6°   Wind: 7mph
Humidity: 66%   Direction: 260°W
Pressure: 29.97"   Gusts: NA
Location:  59.6°N, 65.93°E
Report Text: USHH 211900Z 26003MPS 9000 SCT080 M16/M21 Q1015 NOSIG RMKQFE757 24////42
Loading
Personal Weather Stations






























Interactive Weather Map New forecast layout! Learn more

10-Day Weather Forecast

Advertisements
Track Severe Weather on mobile